Weather at Al Muzoon East Helipad

Public forecast

Using degrees Celsius for public forecast. Weather courtesy of forecast.io.

Closest aviation weather report (METAR) to Al Muzoon East Helipad

Closest report is Al Bateen Executive Airport, 1.4 nm (2.6 km) NE.

2024/07/18 16:00 (retrieved 53 minutes ago)

OMAD 181600Z 29005KT 240V320 CAVOK 36/28 Q0994 NOSIG

Closest aviation forecast (TAF) to Al Muzoon East Helipad

Closest forecast is Al Bateen Executive Airport, 1.4 nm (2.6 km) NE.

2024/07/18 12:00 (retrieved 5 hours ago)

TAF OMAD 181100Z 1812/1918 30011KT 8000 NSC BECMG 1818/1820 24005KT PROB30 1900/1904 4000 HZ BECMG 1907/1909 32012KT